»·PEaware :: WAT442 KSNA-KLAS

WAT442 :: KSNA-KLAS

FLIGHT INFORMATION

Flight Status: Arrived
Operator:
Walker Air Transport
More flights by this operator :: More flights under this callsign
Pilot: Ben B. (33122)
Aircraft: BEECH AIRCRAFT SUPER KING AIR 350
(B350)
More flights by this aircraft type
Origin: KSNA John Wayne-Orange Co
United States
Destination: KLAS McCarran Intl
United States
More flights between these airports :: More routes between these airports
Route: MUSEL8 DAG CRESO4
File this flight plan on PilotEdge
Remarks:
Altitude:
(Current/Filed)
11,000ft
Speed:
(Current/Filed)
308kts
Departed: 07-Jan-21 10:03 AM
Arrived: 07-Jan-21 11:02 AM
Distance/Time
Traveled:
196nm/0:58
Distance/Time
To Go:
Arrived

Flight Plot

Page will automatically refresh every two minutes.

Flight plan parsing failed; only flown route is shown


Map Options




Map Legend


Flown Route
Filed Route
Departure Airport
Arrival Airport
Navaid (VOR, NDB)
Fix

Horizontal Profiles

Position Reports

Time Latitude Longitude Heading Altitude Ground
Speed
07-Jan-21 09:37 33.674991 -117.871438 217 61ft 0kts
07-Jan-21 09:38 33.674991 -117.871438 217 61ft 0kts
07-Jan-21 09:39 33.674991 -117.871438 217 61ft 0kts
07-Jan-21 09:40 33.674991 -117.871438 217 61ft 0kts
07-Jan-21 09:41 33.674991 -117.871438 217 61ft 0kts
07-Jan-21 09:42 33.674991 -117.871438 217 61ft 0kts
07-Jan-21 09:43 33.674991 -117.871438 217 61ft 0kts
07-Jan-21 09:44 33.674991 -117.871438 217 61ft 0kts
07-Jan-21 09:45 33.674991 -117.871438 217 61ft 0kts
07-Jan-21 09:46 33.674991 -117.871438 217 61ft 0kts
07-Jan-21 09:47 33.674991 -117.871438 217 61ft 0kts
07-Jan-21 09:47 33.674991 -117.871438 217 61ft 0kts
07-Jan-21 09:48 33.674991 -117.871438 217 61ft 0kts
07-Jan-21 09:49 33.674991 -117.871438 217 61ft 0kts
07-Jan-21 09:51 33.674991 -117.871438 217 61ft 0kts
07-Jan-21 09:51 33.674991 -117.871438 217 61ft 0kts
07-Jan-21 09:52 33.674991 -117.871438 217 61ft 0kts
07-Jan-21 09:53 33.675358 -117.870499 22 61ft 6kts
07-Jan-21 09:55 33.676883 -117.869559 29 61ft 5kts
07-Jan-21 09:55 33.678017 -117.868839 34 61ft 6kts
07-Jan-21 09:56 33.680056 -117.867739 28 61ft 9kts
07-Jan-21 09:57 33.681232 -117.866487 116 61ft 0kts
07-Jan-21 09:58 33.681232 -117.866487 116 61ft 0kts
07-Jan-21 09:59 33.681232 -117.866487 116 61ft 0kts
07-Jan-21 10:00 33.680756 -117.865637 203 61ft 2kts
07-Jan-21 10:01 33.680754 -117.865638 203 61ft 0kts
07-Jan-21 10:02 33.655905 -117.880880 207 1728ft 171kts
07-Jan-21 10:03 33.610484 -117.894772 187 3104ft 179kts
07-Jan-21 10:04 33.560640 -117.904770 199 4560ft 183kts
07-Jan-21 10:05 33.514232 -117.931466 211 6364ft 186kts
07-Jan-21 10:06 33.498931 -117.988451 261 8126ft 184kts
07-Jan-21 10:07 33.532828 -118.016707 350 9745ft 179kts
07-Jan-21 10:08 33.584085 -118.025295 350 11325ft 179kts
07-Jan-21 10:09 33.635748 -118.033048 349 12762ft 180kts
07-Jan-21 10:10 33.685511 -118.040446 349 14079ft 176kts
07-Jan-21 10:11 33.734811 -118.047644 348 14745ft 181kts
07-Jan-21 10:12 33.786845 -118.050067 18 15005ft 207kts
07-Jan-21 10:13 33.836254 -118.006780 32 15011ft 225kts
07-Jan-21 10:14 33.888249 -117.959703 32 14981ft 242kts
07-Jan-21 10:15 33.945239 -117.908104 33 15020ft 269kts
07-Jan-21 10:16 34.007327 -117.851484 33 15009ft 285kts
07-Jan-21 10:17 34.072291 -117.791711 37 15002ft 290kts
07-Jan-21 10:18 34.131064 -117.715977 45 15033ft 297kts
07-Jan-21 10:19 34.186699 -117.640762 45 15061ft 299kts
07-Jan-21 10:20 34.242471 -117.565396 45 15089ft 300kts
07-Jan-21 10:21 34.298128 -117.490026 45 15092ft 301kts
07-Jan-21 10:22 34.353991 -117.414212 45 15093ft 301kts
07-Jan-21 10:23 34.409780 -117.338330 45 15089ft 301kts
07-Jan-21 10:24 34.466043 -117.261652 45 15089ft 301kts
07-Jan-21 10:25 34.522224 -117.184926 45 15089ft 300kts
07-Jan-21 10:26 34.577769 -117.108897 45 15090ft 300kts
07-Jan-21 10:27 34.633312 -117.032699 45 14992ft 303kts
07-Jan-21 10:28 34.689568 -116.955295 45 15010ft 301kts
07-Jan-21 10:29 34.744989 -116.878942 45 15022ft 300kts
07-Jan-21 10:30 34.800210 -116.802685 45 15013ft 300kts
07-Jan-21 10:31 34.855453 -116.726231 45 15005ft 300kts
07-Jan-21 10:32 34.910874 -116.649345 45 14999ft 300kts
07-Jan-21 10:33 34.964538 -116.571257 53 15000ft 302kts
07-Jan-21 10:34 35.005549 -116.480879 58 15000ft 303kts
07-Jan-21 10:35 35.045815 -116.389867 58 15000ft 304kts
07-Jan-21 10:36 35.086112 -116.298834 58 14998ft 303kts
07-Jan-21 10:37 35.126369 -116.207617 58 14999ft 303kts
07-Jan-21 10:38 35.166560 -116.116328 58 14995ft 304kts
07-Jan-21 10:39 35.206789 -116.024690 58 14985ft 304kts
07-Jan-21 10:40 35.246753 -115.933410 58 14975ft 304kts
07-Jan-21 10:41 35.286765 -115.841796 58 14982ft 304kts
07-Jan-21 10:42 35.333738 -115.756671 43 14370ft 300kts
07-Jan-21 10:43 35.389766 -115.681204 44 12883ft 297kts
07-Jan-21 10:44 35.445411 -115.606657 45 11392ft 293kts
07-Jan-21 10:45 35.500016 -115.533473 46 9986ft 284kts
07-Jan-21 10:46 35.551747 -115.464327 46 10002ft 277kts
07-Jan-21 10:47 35.605890 -115.395400 34 10156ft 276kts
07-Jan-21 10:48 35.658714 -115.329008 55 10201ft 281kts
07-Jan-21 10:49 35.708797 -115.252706 47 8917ft 284kts
07-Jan-21 10:50 35.760444 -115.182811 47 7379ft 264kts
07-Jan-21 10:51 35.817594 -115.144993 11 6981ft 216kts
07-Jan-21 10:52 35.877614 -115.130569 11 6999ft 215kts
07-Jan-21 10:53 35.936635 -115.116372 11 6998ft 215kts
07-Jan-21 10:54 35.995274 -115.102264 11 6998ft 215kts
07-Jan-21 10:55 36.053662 -115.088285 11 6993ft 211kts
07-Jan-21 10:56 36.111302 -115.074299 13 5893ft 206kts
07-Jan-21 10:57 36.154600 -115.082638 281 4318ft 156kts
07-Jan-21 10:58 36.141125 -115.126000 218 3224ft 143kts
07-Jan-21 10:59 36.110203 -115.150054 208 2407ft 126kts
07-Jan-21 11:00 36.085539 -115.164622 213 2142ft 48kts
07-Jan-21 11:01 36.083718 -115.166774 237 2154ft 0kts
07-Jan-21 11:02 36.083718 -115.166774 237 2154ft 0kts
07-Jan-21 11:03 36.082637 -115.168588 214 2162ft 11kts
07-Jan-21 11:04 36.081083 -115.171380 100 2171ft 0kts
07-Jan-21 11:05 36.081083 -115.171380 100 2171ft 0kts

Navigation Log

Ident Type
Flight plan parsing failed, navigation log unavailable